Time;durP1;ratioP1;P1;durP2;ratioP2;P2;SDS_P1;SDS_P2;PMS_P1;PMS_P2;Temp;Humidity;BMP_temperature;BMP_pressure;BME280_temperature;BME280_humidity;BME280_pressure;Samples;Min_cycle;Max_cycle;Signal;HPM_P1;HPM_P2
2023/10/24 00:01:23;;;;;;;7.90;5.70;;;16.60;89.50;;;;;;5055340;28;20460;-69
2023/10/24 00:03:50;;;;;;;7.33;6.07;;;16.60;89.30;;;;;;5034684;28;20572;-69
2023/10/24 00:06:18;;;;;;;9.60;6.90;;;16.60;89.20;;;;;;5035296;28;20479;-70
2023/10/24 00:08:45;;;;;;;7.17;6.00;;;16.60;89.30;;;;;;5036606;28;20545;-70
2023/10/24 00:11:13;;;;;;;8.33;6.13;;;16.50;89.10;;;;;;4984620;28;20469;-69
2023/10/24 00:13:41;;;;;;;9.77;5.33;;;16.50;89.30;;;;;;5034992;28;20514;-69
2023/10/24 00:16:08;;;;;;;6.23;5.63;;;16.40;89.30;;;;;;5035491;28;20568;-69
2023/10/24 00:18:35;;;;;;;6.13;5.53;;;16.50;89.40;;;;;;5017268;28;20445;-69
2023/10/24 00:21:02;;;;;;;6.40;5.70;;;16.50;89.30;;;;;;5012310;28;20862;-69
2023/10/24 00:23:29;;;;;;;6.83;5.97;;;16.50;89.10;;;;;;5033053;28;20480;-69
2023/10/24 00:25:56;;;;;;;6.47;5.50;;;16.40;89.20;;;;;;5023644;28;20453;-69
2023/10/24 00:28:24;;;;;;;6.80;6.07;;;16.40;89.30;;;;;;5036374;28;20536;-69
2023/10/24 00:30:51;;;;;;;8.40;6.13;;;16.40;89.30;;;;;;5033959;28;20457;-69
2023/10/24 00:33:18;;;;;;;5.60;5.10;;;16.40;89.30;;;;;;5033652;28;20473;-69
2023/10/24 00:35:45;;;;;;;8.80;6.60;;;16.40;89.40;;;;;;5019586;28;20473;-68
2023/10/24 00:38:14;;;;;;;6.93;6.03;;;16.40;89.40;;;;;;5032068;28;20953;-69
2023/10/24 00:40:41;;;;;;;7.33;6.37;;;16.40;89.40;;;;;;5018384;28;20454;-69
2023/10/24 00:43:09;;;;;;;6.80;6.00;;;16.40;89.40;;;;;;5022969;28;20484;-69
2023/10/24 00:45:37;;;;;;;6.40;5.80;;;16.40;89.60;;;;;;5036484;28;20481;-69
2023/10/24 00:48:06;;;;;;;8.43;6.13;;;16.50;90.20;;;;;;5032183;28;20452;-69
2023/10/24 00:50:33;;;;;;;8.13;6.93;;;16.50;89.80;;;;;;5022195;28;20486;-70
2023/10/24 00:53:00;;;;;;;9.03;7.13;;;16.50;89.80;;;;;;5026384;28;20992;-69
2023/10/24 00:55:28;;;;;;;7.40;6.33;;;16.50;89.80;;;;;;5026365;28;21005;-69
2023/10/24 00:57:55;;;;;;;7.87;6.23;;;16.50;89.80;;;;;;5018381;28;20452;-70
2023/10/24 01:00:24;;;;;;;8.00;7.03;;;16.50;89.50;;;;;;5014302;28;20466;-69
2023/10/24 01:02:53;;;;;;;7.10;6.50;;;16.50;89.70;;;;;;5025075;28;20485;-69
2023/10/24 01:05:20;;;;;;;7.63;6.70;;;16.50;89.80;;;;;;5033031;28;20441;-68
2023/10/24 01:07:47;;;;;;;9.70;8.73;;;16.50;90.00;;;;;;5030431;28;20483;-69
2023/10/24 01:10:14;;;;;;;10.27;7.10;;;16.40;90.10;;;;;;5023102;28;20445;-68
2023/10/24 01:12:41;;;;;;;7.93;6.27;;;16.40;90.20;;;;;;5025704;28;20446;-69
2023/10/24 01:15:09;;;;;;;7.67;5.80;;;16.40;90.50;;;;;;5033585;28;20453;-69
2023/10/24 01:17:36;;;;;;;6.33;5.67;;;16.50;90.20;;;;;;4989996;28;20438;-69
2023/10/24 01:20:05;;;;;;;7.23;6.47;;;16.50;90.10;;;;;;5029428;28;20475;-69
2023/10/24 01:22:33;;;;;;;7.57;6.57;;;16.50;90.00;;;;;;5022648;28;20481;-68
2023/10/24 01:25:00;;;;;;;7.40;6.40;;;16.50;90.40;;;;;;5033529;28;20552;-69
2023/10/24 01:27:26;;;;;;;7.17;6.10;;;16.40;90.10;;;;;;5025434;28;20454;-69
2023/10/24 01:29:53;;;;;;;6.93;6.23;;;16.50;90.20;;;;;;5026141;28;20470;-69
2023/10/24 01:32:29;;;;;;;8.10;6.83;;;16.50;90.10;;;;;;5032226;28;20457;-69
2023/10/24 01:34:56;;;;;;;7.70;6.50;;;16.50;90.30;;;;;;5033414;28;20461;-69
2023/10/24 01:37:23;;;;;;;8.17;6.93;;;16.50;90.00;;;;;;5024830;28;20453;-69
2023/10/24 01:39:51;;;;;;;7.03;6.20;;;16.60;90.00;;;;;;5032507;28;20945;-68
2023/10/24 01:42:18;;;;;;;6.60;5.93;;;16.50;90.10;;;;;;5032891;28;20976;-69
2023/10/24 01:44:45;;;;;;;7.70;6.23;;;16.60;90.10;;;;;;5033065;28;20540;-68
2023/10/24 01:47:12;;;;;;;7.87;6.50;;;16.60;90.20;;;;;;5019623;28;20520;-69
2023/10/24 01:49:38;;;;;;;7.87;7.07;;;16.60;90.10;;;;;;5020354;28;20458;-69
2023/10/24 01:52:05;;;;;;;7.87;7.07;;;16.60;90.10;;;;;;5030797;28;20458;-67
2023/10/24 01:54:32;;;;;;;8.13;7.33;;;16.60;90.10;;;;;;5031853;28;20467;-69
2023/10/24 01:57:00;;;;;;;8.00;6.80;;;16.70;90.10;;;;;;5015825;28;20973;-69
2023/10/24 01:59:27;;;;;;;8.30;6.47;;;16.70;90.10;;;;;;5019574;28;20848;-69
2023/10/24 02:01:54;;;;;;;6.70;6.10;;;16.70;90.10;;;;;;5015915;28;20460;-68
2023/10/24 02:04:21;;;;;;;6.20;5.67;;;16.70;90.10;;;;;;5025567;28;20543;-68
2023/10/24 02:06:48;;;;;;;6.83;6.13;;;16.70;90.10;;;;;;5021969;28;20450;-69
2023/10/24 02:09:15;;;;;;;7.00;6.27;;;16.80;90.10;;;;;;5022110;28;20538;-69
2023/10/24 02:11:41;;;;;;;8.37;7.23;;;16.70;90.00;;;;;;5032888;28;20731;-69
2023/10/24 02:14:10;;;;;;;7.70;6.90;;;16.70;90.30;;;;;;5031902;28;20959;-69
2023/10/24 02:16:37;;;;;;;11.23;7.97;;;16.60;90.00;;;;;;5027013;28;20458;-69
2023/10/24 02:19:04;;;;;;;8.43;6.20;;;16.60;90.10;;;;;;5020212;28;20449;-69
2023/10/24 02:21:30;;;;;;;7.47;6.57;;;16.50;90.20;;;;;;5031920;28;20481;-68
2023/10/24 02:23:58;;;;;;;7.43;6.73;;;16.50;90.30;;;;;;5032558;28;20485;-69
2023/10/24 02:26:25;;;;;;;7.43;6.60;;;16.50;90.30;;;;;;4981333;28;20483;-69
2023/10/24 02:28:51;;;;;;;8.13;6.73;;;16.50;90.20;;;;;;5026395;28;20784;-69
2023/10/24 02:31:20;;;;;;;7.07;6.07;;;16.50;90.20;;;;;;5015249;28;20465;-69
2023/10/24 02:33:46;;;;;;;6.87;5.87;;;16.60;90.20;;;;;;5029867;28;20450;-68
2023/10/24 02:36:15;;;;;;;8.03;7.10;;;16.60;90.20;;;;;;5018369;28;20459;-69
2023/10/24 02:38:42;;;;;;;7.83;6.97;;;16.60;90.10;;;;;;5027787;28;20929;-68
2023/10/24 02:41:09;;;;;;;7.87;7.17;;;16.60;90.10;;;;;;5031785;28;20949;-68
2023/10/24 02:43:36;;;;;;;7.77;6.97;;;16.50;90.00;;;;;;5031548;28;20497;-68
2023/10/24 02:46:04;;;;;;;8.97;8.00;;;16.60;90.10;;;;;;5032623;28;20447;-69
2023/10/24 02:48:33;;;;;;;9.60;7.87;;;16.60;90.00;;;;;;5030020;28;20473;-69
2023/10/24 02:51:00;;;;;;;9.07;8.17;;;16.50;90.00;;;;;;5032449;28;20550;-69
2023/10/24 02:53:27;;;;;;;8.50;7.70;;;16.40;90.20;;;;;;5028878;28;20461;-69
2023/10/24 02:55:54;;;;;;;8.47;7.67;;;16.50;90.30;;;;;;5012580;28;20474;-68
2023/10/24 02:58:21;;;;;;;8.33;7.10;;;16.40;90.30;;;;;;5013334;28;20453;-68
2023/10/24 03:00:48;;;;;;;12.80;8.67;;;16.40;90.20;;;;;;5012285;28;21100;-68
2023/10/24 03:03:14;;;;;;;10.00;8.33;;;16.40;90.20;;;;;;5016775;28;20573;-69
2023/10/24 03:05:46;;;;;;;9.90;8.90;;;16.40;90.30;;;;;;5012176;28;20492;-69
2023/10/24 03:08:13;;;;;;;10.03;8.90;;;16.40;90.50;;;;;;5028982;28;20456;-69
2023/10/24 03:10:40;;;;;;;9.23;8.27;;;16.40;90.40;;;;;;5031092;28;20460;-69
2023/10/24 03:13:07;;;;;;;10.37;9.17;;;16.30;90.40;;;;;;5023397;28;20449;-69
2023/10/24 03:15:35;;;;;;;11.57;9.23;;;16.30;90.40;;;;;;4984315;28;20456;-68
2023/10/24 03:18:02;;;;;;;9.67;8.40;;;16.20;90.60;;;;;;5012032;28;20481;-69
2023/10/24 03:20:29;;;;;;;11.03;9.30;;;16.30;90.70;;;;;;5013976;28;20533;-69
2023/10/24 03:22:57;;;;;;;10.43;9.43;;;16.30;90.80;;;;;;5031236;28;20848;-70
2023/10/24 03:25:26;;;;;;;11.30;10.20;;;16.30;90.60;;;;;;5014804;28;20458;-69
2023/10/24 03:27:54;;;;;;;10.77;9.67;;;16.30;90.80;;;;;;5017878;28;20883;-70
2023/10/24 03:30:22;;;;;;;11.90;10.70;;;16.30;90.80;;;;;;5025151;28;20450;-69
2023/10/24 03:32:48;;;;;;;9.97;8.97;;;16.30;90.80;;;;;;5018713;28;20454;-69
2023/10/24 03:35:16;;;;;;;12.27;9.63;;;16.30;90.80;;;;;;5023742;28;20535;-68
2023/10/24 03:37:43;;;;;;;10.33;9.33;;;16.30;90.80;;;;;;5012123;28;20453;-69
2023/10/24 03:40:11;;;;;;;11.40;9.50;;;16.30;90.90;;;;;;5012000;28;20480;-69
2023/10/24 03:42:38;;;;;;;10.53;9.43;;;16.30;90.90;;;;;;5011531;28;20458;-69
2023/10/24 03:45:06;;;;;;;11.73;9.70;;;16.30;91.00;;;;;;5025060;28;20492;-70
2023/10/24 03:47:33;;;;;;;10.30;8.83;;;16.30;90.90;;;;;;5031234;28;20496;-69
2023/10/24 03:50:00;;;;;;;9.83;8.33;;;16.40;91.00;;;;;;5031594;28;20548;-69
2023/10/24 03:52:27;;;;;;;9.53;8.53;;;16.40;90.80;;;;;;5029593;28;20477;-69
2023/10/24 03:54:54;;;;;;;11.03;9.10;;;16.40;90.90;;;;;;5020403;28;20469;-69
2023/10/24 03:57:22;;;;;;;9.93;8.40;;;16.40;90.90;;;;;;5021049;28;20475;-69
2023/10/24 03:59:49;;;;;;;9.10;8.20;;;16.50;90.90;;;;;;5029611;28;20460;-69
2023/10/24 04:02:16;;;;;;;12.27;9.07;;;16.50;90.90;;;;;;5031478;28;20560;-69
2023/10/24 04:04:43;;;;;;;8.83;7.93;;;16.50;90.90;;;;;;5022341;28;21026;-69
2023/10/24 04:07:10;;;;;;;8.43;7.53;;;16.50;90.80;;;;;;5011623;28;20828;-68
2023/10/24 04:09:37;;;;;;;11.90;9.33;;;16.60;90.80;;;;;;5011639;28;20477;-69
2023/10/24 04:12:05;;;;;;;12.77;8.13;;;16.60;90.80;;;;;;5011248;28;20454;-69
2023/10/24 04:14:33;;;;;;;10.63;7.77;;;16.60;90.80;;;;;;5018074;28;20481;-68
2023/10/24 04:17:00;;;;;;;8.43;7.50;;;16.60;90.80;;;;;;5031298;28;20456;-69
2023/10/24 04:19:27;;;;;;;9.30;8.30;;;16.60;90.70;;;;;;5031562;28;20480;-69
2023/10/24 04:21:54;;;;;;;8.93;8.03;;;16.70;90.70;;;;;;5031150;28;20537;-69
2023/10/24 04:24:21;;;;;;;10.20;8.07;;;16.70;91.00;;;;;;5022231;28;20592;-69
2023/10/24 04:26:47;;;;;;;9.03;8.17;;;16.70;90.80;;;;;;5011251;28;20452;-69
2023/10/24 04:29:15;;;;;;;9.80;8.80;;;16.70;90.70;;;;;;5027098;28;20468;-69
2023/10/24 04:31:43;;;;;;;8.33;7.00;;;16.70;90.70;;;;;;5031192;28;20447;-70
2023/10/24 04:34:10;;;;;;;7.70;6.90;;;16.70;90.60;;;;;;5023930;28;20454;-69
2023/10/24 04:36:38;;;;;;;9.10;8.20;;;16.70;90.60;;;;;;5016709;28;20477;-69
2023/10/24 04:39:05;;;;;;;8.87;7.97;;;16.70;90.60;;;;;;5030433;28;20536;-69
2023/10/24 04:41:31;;;;;;;8.40;7.57;;;16.60;90.50;;;;;;5034280;28;20483;-70
2023/10/24 04:43:58;;;;;;;9.17;8.27;;;16.70;90.50;;;;;;5027897;28;20866;-69
2023/10/24 04:46:25;;;;;;;9.13;8.07;;;16.70;90.60;;;;;;5021611;28;20450;-69
2023/10/24 04:48:53;;;;;;;10.27;7.80;;;16.60;90.50;;;;;;5034500;28;20963;-69
2023/10/24 04:51:20;;;;;;;11.97;9.40;;;16.60;90.50;;;;;;5037567;28;20463;-69
2023/10/24 04:53:47;;;;;;;11.30;7.80;;;16.60;90.60;;;;;;5022698;28;20456;-69
2023/10/24 04:56:14;;;;;;;13.00;8.63;;;16.60;90.60;;;;;;5022184;28;20484;-69
2023/10/24 04:58:41;;;;;;;10.60;9.47;;;16.60;90.80;;;;;;4997151;28;20492;-70
2023/10/24 05:01:08;;;;;;;9.10;8.17;;;16.60;90.70;;;;;;5014739;28;20489;-69
2023/10/24 05:03:36;;;;;;;10.90;9.00;;;16.60;90.70;;;;;;5015636;28;20498;-69
2023/10/24 05:06:05;;;;;;;9.13;8.10;;;16.50;90.80;;;;;;5030447;28;20453;-69
2023/10/24 05:08:32;;;;;;;7.97;7.20;;;16.50;90.80;;;;;;5033534;28;20540;-70
2023/10/24 05:10:59;;;;;;;8.63;7.83;;;16.50;90.70;;;;;;5032768;28;20957;-69
2023/10/24 05:13:26;;;;;;;8.90;7.97;;;16.60;90.80;;;;;;5030349;28;20460;-69
2023/10/24 05:15:53;;;;;;;8.67;7.80;;;16.60;90.80;;;;;;5033448;28;21007;-68
2023/10/24 05:18:19;;;;;;;9.00;8.10;;;16.60;90.80;;;;;;5033624;28;20461;-69
2023/10/24 05:20:47;;;;;;;8.97;8.07;;;16.60;90.80;;;;;;5025424;28;20489;-69
2023/10/24 05:23:16;;;;;;;8.57;7.67;;;16.60;90.80;;;;;;5029134;28;20937;-69
2023/10/24 05:25:43;;;;;;;10.07;8.77;;;16.60;90.80;;;;;;5032901;28;20485;-69
2023/10/24 05:28:10;;;;;;;9.67;7.57;;;16.60;90.80;;;;;;5032262;28;20488;-69
2023/10/24 05:30:39;;;;;;;7.43;6.73;;;16.60;90.80;;;;;;5031680;28;20539;-69
2023/10/24 05:33:06;;;;;;;9.97;8.47;;;16.60;90.80;;;;;;5029830;28;20450;-70
2023/10/24 05:35:33;;;;;;;10.13;8.33;;;16.60;90.80;;;;;;5022404;28;20441;-69
2023/10/24 05:38:01;;;;;;;8.60;7.67;;;16.60;90.80;;;;;;5025812;28;20529;-69
2023/10/24 05:40:30;;;;;;;10.67;9.03;;;16.60;90.80;;;;;;5025232;28;20459;-68
2023/10/24 05:42:56;;;;;;;9.77;8.77;;;16.70;90.90;;;;;;5029163;28;20473;-68
2023/10/24 05:45:24;;;;;;;9.73;8.73;;;16.60;90.80;;;;;;5014413;28;20496;-68
2023/10/24 05:47:50;;;;;;;8.70;7.80;;;16.70;90.90;;;;;;5022123;28;20477;-68
2023/10/24 05:50:19;;;;;;;8.40;7.60;;;16.60;90.80;;;;;;5022808;28;20528;-69
2023/10/24 05:52:47;;;;;;;9.83;8.83;;;16.70;90.80;;;;;;5047811;28;20459;-69
2023/10/24 05:55:14;;;;;;;10.27;9.33;;;16.60;90.80;;;;;;5050877;28;20464;-69
2023/10/24 05:57:42;;;;;;;9.20;8.17;;;16.60;90.90;;;;;;4998408;28;20536;-70
2023/10/24 06:00:10;;;;;;;9.40;8.23;;;16.60;90.90;;;;;;5031844;28;20491;-68
2023/10/24 06:02:40;;;;;;;8.83;8.03;;;16.60;90.90;;;;;;5015363;28;20887;-69
2023/10/24 06:05:07;;;;;;;8.70;7.80;;;16.60;90.90;;;;;;5031611;28;20571;-70
2023/10/24 06:07:36;;;;;;;7.37;6.77;;;16.60;90.90;;;;;;5032612;28;20611;-69
2023/10/24 06:10:05;;;;;;;9.47;8.57;;;16.70;91.00;;;;;;5025867;28;21012;-69
2023/10/24 06:12:32;;;;;;;10.30;9.30;;;16.70;91.00;;;;;;5022477;28;20967;-69
2023/10/24 06:15:00;;;;;;;13.03;10.70;;;16.70;90.90;;;;;;5047094;28;20447;-68
2023/10/24 06:17:27;;;;;;;13.07;10.20;;;16.60;90.90;;;;;;5049650;28;20454;-68
2023/10/24 06:19:54;;;;;;;11.10;10.00;;;16.50;91.00;;;;;;5032007;28;20451;-68
2023/10/24 06:22:21;;;;;;;9.47;8.63;;;16.50;91.00;;;;;;5032319;28;20483;-67
2023/10/24 06:24:48;;;;;;;11.23;9.27;;;16.50;91.10;;;;;;5032204;28;20488;-68
2023/10/24 06:27:16;;;;;;;11.07;9.93;;;16.50;91.10;;;;;;5032196;28;20636;-68
2023/10/24 06:29:43;;;;;;;12.63;10.10;;;16.50;91.10;;;;;;5032222;28;20536;-69
2023/10/24 06:32:11;;;;;;;11.60;10.43;;;16.40;91.40;;;;;;5029498;28;20456;-68
2023/10/24 06:34:38;;;;;;;14.50;11.50;;;16.30;91.60;;;;;;5031789;28;20473;-68
2023/10/24 06:37:05;;;;;;;15.47;10.57;;;16.30;91.60;;;;;;5032079;28;20447;-67
2023/10/24 06:39:32;;;;;;;11.77;10.63;;;16.30;91.60;;;;;;5032214;28;20453;-68
2023/10/24 06:41:58;;;;;;;12.67;11.47;;;16.40;91.60;;;;;;5014937;28;20462;-68
2023/10/24 06:44:27;;;;;;;10.83;9.73;;;16.40;91.60;;;;;;5020216;28;20825;-68
2023/10/24 06:46:54;;;;;;;12.17;10.97;;;16.40;91.60;;;;;;5031591;28;21008;-68
2023/10/24 06:49:22;;;;;;;11.07;9.87;;;16.30;91.90;;;;;;5031796;28;20465;-68
2023/10/24 06:51:50;;;;;;;11.23;10.00;;;16.30;92.00;;;;;;5029323;28;20477;-68
2023/10/24 06:54:17;;;;;;;10.13;9.13;;;16.30;91.90;;;;;;5031760;28;20456;-68
2023/10/24 06:56:43;;;;;;;10.67;9.57;;;16.30;92.00;;;;;;5029841;28;20544;-68
2023/10/24 06:59:10;;;;;;;10.57;9.47;;;16.40;92.00;;;;;;5031507;28;20559;-67
2023/10/24 07:01:37;;;;;;;9.80;8.80;;;16.50;91.90;;;;;;4980411;28;20484;-68
2023/10/24 07:04:05;;;;;;;9.60;8.70;;;16.60;91.80;;;;;;5012803;28;20458;-67
2023/10/24 07:06:33;;;;;;;12.10;8.47;;;16.60;91.70;;;;;;5012044;28;20861;-68
2023/10/24 07:09:00;;;;;;;10.80;9.10;;;16.70;91.70;;;;;;5028532;28;20897;-67
2023/10/24 07:11:27;;;;;;;9.37;8.47;;;16.70;91.70;;;;;;5031036;28;20461;-68
2023/10/24 07:13:54;;;;;;;9.47;8.60;;;16.80;91.70;;;;;;5017829;28;20445;-68
2023/10/24 07:16:21;;;;;;;9.13;8.33;;;16.70;91.60;;;;;;5028971;28;20453;-68
2023/10/24 07:18:48;;;;;;;10.77;9.37;;;16.80;91.70;;;;;;5013353;28;20542;-68
2023/10/24 07:21:16;;;;;;;9.60;8.43;;;16.80;91.70;;;;;;5029066;28;20541;-68
2023/10/24 07:23:44;;;;;;;10.60;9.00;;;16.80;91.60;;;;;;5031270;28;20487;-68
2023/10/24 07:26:12;;;;;;;10.67;9.57;;;16.80;91.60;;;;;;5031053;28;20485;-68
2023/10/24 07:28:39;;;;;;;9.70;8.73;;;16.90;91.60;;;;;;5031533;28;20515;-68
2023/10/24 07:31:06;;;;;;;10.40;9.50;;;16.90;91.60;;;;;;5023304;28;20512;-68
2023/10/24 07:33:33;;;;;;;10.83;9.13;;;16.90;91.60;;;;;;5011497;28;21001;-68
2023/10/24 07:36:05;;;;;;;9.40;8.50;;;16.90;91.60;;;;;;5011685;28;20498;-68
2023/10/24 07:38:32;;;;;;;10.10;9.20;;;17.00;91.60;;;;;;5016097;28;20938;-68
2023/10/24 07:41:00;;;;;;;10.20;9.17;;;16.90;91.50;;;;;;5011458;28;20472;-68
2023/10/24 07:43:28;;;;;;;10.03;9.03;;;17.00;91.70;;;;;;5011646;28;20453;-68
2023/10/24 07:45:54;;;;;;;11.03;9.60;;;17.00;91.60;;;;;;5011476;28;20575;-68
2023/10/24 07:48:21;;;;;;;13.07;11.67;;;17.00;91.70;;;;;;5011014;28;20470;-68
2023/10/24 07:50:54;;;;;;;21.53;17.33;;;17.00;91.70;;;;;;5011574;28;20858;-68
2023/10/24 07:53:21;;;;;;;18.07;15.87;;;17.00;91.70;;;;;;5015817;28;20457;-69
2023/10/24 07:55:49;;;;;;;16.70;14.13;;;17.00;91.70;;;;;;5031353;28;20735;-68
2023/10/24 07:58:18;;;;;;;12.13;10.80;;;16.90;91.70;;;;;;5021023;28;20993;-68
2023/10/24 08:00:45;;;;;;;11.93;10.57;;;17.00;91.70;;;;;;5015449;28;20481;-68
2023/10/24 08:03:13;;;;;;;11.70;10.60;;;17.00;91.80;;;;;;5031452;28;20532;-68
2023/10/24 08:05:41;;;;;;;11.33;10.13;;;17.00;91.80;;;;;;5021453;28;20920;-68
2023/10/24 08:08:08;;;;;;;11.37;9.87;;;16.90;91.70;;;;;;5011536;28;20480;-68
2023/10/24 08:10:35;;;;;;;11.63;9.93;;;17.00;91.80;;;;;;5011445;28;20928;-68
2023/10/24 08:13:02;;;;;;;9.10;8.30;;;17.00;91.80;;;;;;5011405;28;20561;-69
2023/10/24 08:15:31;;;;;;;12.00;10.20;;;16.90;91.80;;;;;;5015450;28;20450;-68
2023/10/24 08:17:58;;;;;;;10.80;9.43;;;16.90;91.80;;;;;;5014746;28;20576;-68
2023/10/24 08:20:26;;;;;;;8.87;7.90;;;17.00;91.80;;;;;;5014878;28;20446;-68
2023/10/24 08:22:53;;;;;;;12.47;9.37;;;17.00;91.90;;;;;;5035012;28;20554;-68
2023/10/24 08:25:20;;;;;;;10.47;9.33;;;17.00;91.80;;;;;;5030406;28;20485;-68
2023/10/24 08:27:47;;;;;;;8.93;8.03;;;17.00;92.00;;;;;;5046973;28;20444;-67
2023/10/24 08:30:14;;;;;;;10.50;9.50;;;17.00;91.90;;;;;;5053211;28;20472;-67
2023/10/24 08:32:42;;;;;;;10.60;9.43;;;17.00;91.90;;;;;;5024467;28;20983;-68
2023/10/24 08:35:09;;;;;;;14.93;10.33;;;17.00;92.00;;;;;;5015773;28;20438;-68
2023/10/24 08:37:36;;;;;;;11.33;9.87;;;17.00;92.10;;;;;;5034557;28;20504;-67
2023/10/24 08:40:03;;;;;;;10.20;9.20;;;17.00;92.20;;;;;;5034447;28;20864;-68
2023/10/24 08:42:31;;;;;;;11.43;10.33;;;17.00;92.20;;;;;;5016473;28;20528;-68
2023/10/24 08:44:59;;;;;;;10.77;9.67;;;16.90;92.20;;;;;;5034110;28;20477;-68
2023/10/24 08:47:28;;;;;;;10.27;9.07;;;16.90;92.20;;;;;;5034035;28;20933;-67
2023/10/24 08:49:58;;;;;;;12.40;10.00;;;17.00;92.20;;;;;;5034077;28;20473;-67
2023/10/24 08:52:25;;;;;;;10.17;9.00;;;17.00;92.20;;;;;;5029445;28;20539;-68
2023/10/24 08:54:52;;;;;;;7.90;7.10;;;17.10;92.20;;;;;;5014226;28;20469;-68
2023/10/24 08:57:24;;;;;;;9.60;7.60;;;17.10;92.20;;;;;;5034208;28;20448;-69
2023/10/24 08:59:53;;;;;;;9.20;8.30;;;17.10;92.20;;;;;;5019591;28;20661;-66
2023/10/24 09:02:21;;;;;;;10.40;9.00;;;17.10;92.20;;;;;;5016387;28;20541;-68
2023/10/24 09:04:48;;;;;;;10.50;8.17;;;17.10;92.20;;;;;;5014338;28;20568;-68
2023/10/24 09:07:16;;;;;;;10.10;8.43;;;17.20;92.30;;;;;;5014204;28;20450;-68
2023/10/24 09:09:43;;;;;;;8.60;7.70;;;17.20;92.20;;;;;;5013811;28;20537;-67
2023/10/24 09:12:14;;;;;;;9.80;8.60;;;17.20;92.20;;;;;;5014133;28;20550;-66
2023/10/24 09:14:45;;;;;;;8.13;7.33;;;17.30;92.20;;;;;;5013628;28;20997;-67
2023/10/24 09:17:14;;;;;;;7.73;6.70;;;17.20;92.10;;;;;;5014040;28;21046;-67
2023/10/24 09:19:41;;;;;;;7.40;6.77;;;17.30;92.00;;;;;;5014796;28;20466;-67
2023/10/24 09:22:08;;;;;;;9.00;8.10;;;17.30;92.00;;;;;;5010884;28;20523;-67
2023/10/24 09:24:37;;;;;;;8.73;7.93;;;17.30;91.90;;;;;;5029624;28;20537;-67
2023/10/24 09:27:04;;;;;;;8.37;7.50;;;17.30;91.90;;;;;;5015627;28;20541;-67
2023/10/24 09:29:33;;;;;;;8.70;7.90;;;17.30;92.00;;;;;;5013499;28;20458;-67
2023/10/24 09:32:00;;;;;;;8.90;8.03;;;17.20;92.00;;;;;;5015227;28;20834;-67
2023/10/24 09:34:27;;;;;;;8.57;7.67;;;17.30;92.10;;;;;;5014113;28;20453;-67
2023/10/24 09:37:06;;;;;;;9.40;8.03;;;17.30;92.00;;;;;;5013688;28;20442;-66
2023/10/24 09:39:33;;;;;;;9.07;8.20;;;17.30;92.20;;;;;;5013109;28;21081;-68
2023/10/24 09:42:03;;;;;;;9.47;8.10;;;17.30;92.10;;;;;;5013246;28;20504;-68
2023/10/24 09:44:30;;;;;;;10.17;7.93;;;17.40;92.20;;;;;;5013541;28;20548;-68
2023/10/24 09:46:58;;;;;;;9.43;8.63;;;17.30;92.20;;;;;;5013356;28;20895;-67
2023/10/24 09:49:28;;;;;;;8.97;8.07;;;17.30;92.30;;;;;;5014517;28;20478;-67
2023/10/24 09:51:55;;;;;;;10.87;8.90;;;17.40;92.30;;;;;;5014106;28;20822;-67
2023/10/24 09:54:23;;;;;;;8.73;7.83;;;17.40;92.30;;;;;;5013191;28;20564;-66
2023/10/24 09:56:54;;;;;;;8.63;7.30;;;17.40;92.30;;;;;;5021107;28;20564;-68
2023/10/24 09:59:23;;;;;;;7.70;6.77;;;17.40;92.30;;;;;;5018193;28;21017;-68
2023/10/24 10:01:51;;;;;;;8.23;6.73;;;17.30;92.40;;;;;;4995638;28;20803;-67
2023/10/24 10:04:19;;;;;;;7.30;6.60;;;17.30;92.40;;;;;;5013047;28;20521;-67
2023/10/24 10:06:47;;;;;;;7.30;6.60;;;17.30;92.50;;;;;;4979398;28;21020;-68
2023/10/24 10:09:18;;;;;;;6.43;5.83;;;17.30;92.50;;;;;;5013199;28;20443;-67
2023/10/24 10:11:47;;;;;;;6.27;5.63;;;17.30;92.50;;;;;;5013109;28;20458;-68
2023/10/24 10:14:23;;;;;;;7.10;5.97;;;17.40;92.50;;;;;;5013029;28;21073;-66
2023/10/24 10:17:04;;;;;;;6.13;4.80;;;17.40;92.40;;;;;;5013952;28;20485;-66
2023/10/24 10:19:48;;;;;;;7.17;5.63;;;17.40;92.50;;;;;;5013474;28;20826;-68
2023/10/24 10:22:28;;;;;;;5.80;5.03;;;17.40;92.60;;;;;;5028454;28;20528;-67
2023/10/24 10:25:25;;;;;;;5.90;5.13;;;17.40;92.60;;;;;;5032715;28;20452;-67
2023/10/24 10:28:00;;;;;;;5.53;5.03;;;17.40;92.90;;;;;;5032192;28;20507;-68
2023/10/24 10:30:35;;;;;;;5.83;5.23;;;17.40;92.70;;;;;;5032213;28;20480;-67
2023/10/24 10:33:11;;;;;;;5.90;5.13;;;17.40;92.60;;;;;;5027467;28;20477;-68
2023/10/24 10:35:48;;;;;;;5.40;4.47;;;17.40;92.70;;;;;;5030350;28;20508;-68
2023/10/24 10:38:25;;;;;;;5.40;4.90;;;17.40;92.70;;;;;;5022243;28;20555;-66
2023/10/24 10:40:52;;;;;;;4.57;4.10;;;17.40;92.80;;;;;;5024103;28;20489;-67
2023/10/24 10:43:30;;;;;;;5.43;4.93;;;17.40;92.80;;;;;;5021512;28;20444;-68
2023/10/24 10:46:15;;;;;;;4.90;4.50;;;17.40;92.80;;;;;;5049254;28;20520;-67
2023/10/24 10:48:44;;;;;;;5.67;5.17;;;17.50;92.90;;;;;;5031254;28;20438;-67
2023/10/24 10:51:13;;;;;;;5.43;4.93;;;17.50;92.70;;;;;;5013514;28;20465;-66
2023/10/24 10:53:48;;;;;;;5.60;5.10;;;17.50;92.70;;;;;;5025907;28;20549;-67
2023/10/24 10:56:19;;;;;;;5.90;5.40;;;17.50;92.70;;;;;;5039322;28;20474;-68
2023/10/24 10:59:13;;;;;;;5.90;4.90;;;17.50;92.90;;;;;;5046642;28;20468;-68
2023/10/24 11:01:51;;;;;;;6.57;5.10;;;17.50;93.00;;;;;;5013757;28;20454;-68
2023/10/24 11:04:20;;;;;;;5.77;5.27;;;17.40;92.90;;;;;;5030700;28;20452;-68
2023/10/24 11:06:52;;;;;;;5.40;4.90;;;17.40;93.00;;;;;;5030866;28;20485;-68
2023/10/24 11:09:21;;;;;;;6.53;5.37;;;17.40;93.00;;;;;;5030659;28;20469;-68
2023/10/24 11:11:48;;;;;;;6.03;5.43;;;17.40;93.00;;;;;;4995851;28;20453;-67
2023/10/24 11:14:17;;;;;;;6.13;5.53;;;17.40;92.90;;;;;;5012703;28;20454;-68
2023/10/24 11:16:46;;;;;;;5.53;5.03;;;17.40;93.00;;;;;;4976932;28;20482;-68
2023/10/24 11:19:20;;;;;;;5.83;5.30;;;17.50;93.10;;;;;;5011060;28;20453;-68
2023/10/24 11:21:47;;;;;;;6.50;5.30;;;17.50;93.00;;;;;;5021923;28;20461;-68
2023/10/24 11:24:17;;;;;;;5.63;5.03;;;17.50;93.00;;;;;;5028913;28;20870;-67
2023/10/24 11:26:44;;;;;;;5.40;4.90;;;17.50;93.00;;;;;;5030442;28;20830;-68
2023/10/24 11:29:13;;;;;;;5.50;5.00;;;17.50;93.10;;;;;;5016049;28;20231;-68
2023/10/24 11:31:40;;;;;;;5.70;5.20;;;17.60;93.10;;;;;;5010707;28;20442;-68
2023/10/24 11:34:06;;;;;;;5.40;4.90;;;17.60;93.00;;;;;;5011832;28;20554;-68
2023/10/24 11:36:36;;;;;;;4.90;4.40;;;17.50;93.10;;;;;;5018889;28;20533;-67
2023/10/24 11:39:04;;;;;;;5.80;4.80;;;17.60;93.20;;;;;;5010411;28;20544;-68
2023/10/24 11:41:31;;;;;;;5.30;4.80;;;17.60;93.20;;;;;;5010734;28;20881;-68
2023/10/24 11:43:58;;;;;;;5.47;4.97;;;17.60;93.20;;;;;;5012100;28;20454;-67
2023/10/24 11:46:25;;;;;;;5.47;4.70;;;17.60;93.20;;;;;;5021353;28;20513;-67
2023/10/24 11:48:52;;;;;;;3.90;3.47;;;17.60;93.20;;;;;;5040708;28;20550;-67
2023/10/24 11:51:19;;;;;;;4.93;4.47;;;17.70;93.20;;;;;;5034575;28;20527;-67
2023/10/24 11:53:47;;;;;;;4.93;4.53;;;17.70;93.20;;;;;;5034081;28;20440;-68
2023/10/24 11:56:16;;;;;;;4.67;4.27;;;17.70;93.30;;;;;;5029351;28;20521;-68
2023/10/24 11:58:43;;;;;;;4.83;4.33;;;17.70;93.10;;;;;;5038385;28;20556;-67
2023/10/24 12:01:11;;;;;;;5.17;4.20;;;17.70;93.20;;;;;;5026497;28;20507;-68
2023/10/24 12:03:45;;;;;;;5.50;4.87;;;17.70;93.20;;;;;;5034288;28;20445;-68
2023/10/24 12:06:13;;;;;;;6.00;5.23;;;17.70;93.30;;;;;;5033831;28;21002;-68
2023/10/24 12:08:40;;;;;;;5.07;4.63;;;17.80;93.30;;;;;;5015415;28;20464;-67
2023/10/24 12:11:11;;;;;;;5.77;5.23;;;17.80;93.40;;;;;;5014266;28;20441;-68
2023/10/24 12:13:37;;;;;;;5.63;5.00;;;17.80;93.30;;;;;;5014014;28;20975;-68
2023/10/24 12:16:05;;;;;;;6.03;5.37;;;17.90;93.30;;;;;;5014182;28;20477;-68
2023/10/24 12:18:33;;;;;;;5.93;5.33;;;17.90;93.30;;;;;;5030327;28;20488;-67
2023/10/24 12:21:00;;;;;;;5.60;5.10;;;17.90;93.60;;;;;;5026371;28;20873;-68
2023/10/24 12:23:28;;;;;;;6.03;5.43;;;17.90;93.40;;;;;;5014149;28;20901;-67
2023/10/24 12:25:55;;;;;;;6.00;5.40;;;17.90;93.40;;;;;;4980560;28;20558;-67
2023/10/24 12:28:25;;;;;;;8.10;6.07;;;18.00;93.40;;;;;;5032206;28;20869;-68
2023/10/24 12:30:53;;;;;;;6.17;5.20;;;18.00;93.40;;;;;;5034612;28;20490;-67
2023/10/24 12:33:20;;;;;;;6.47;5.50;;;18.00;93.40;;;;;;5033507;28;20473;-67
2023/10/24 12:35:47;;;;;;;7.23;5.53;;;18.10;93.40;;;;;;5033658;28;20453;-68
2023/10/24 12:38:15;;;;;;;6.07;5.47;;;18.10;93.40;;;;;;5012926;28;20198;-68
2023/10/24 12:40:44;;;;;;;7.00;5.53;;;18.10;93.40;;;;;;5023906;28;20496;-68
2023/10/24 12:43:12;;;;;;;5.43;4.93;;;18.10;93.30;;;;;;5013486;28;20767;-68
2023/10/24 12:45:40;;;;;;;5.23;4.73;;;18.10;93.40;;;;;;5015427;28;20481;-68
2023/10/24 12:48:10;;;;;;;5.20;4.70;;;18.10;93.50;;;;;;5026940;28;20453;-67